CSA185 UZTT-LKPR
Flight info
| Callsign | CSA185 |
|---|---|
| Flight time | N/A |
| Altitude | 34000 |
| Route | DIBAD2A DIBAD N193 OGOLI T898 DARVA/N0456F340 B476 METKA L88 NIJAT N644 ADEKI/N0453F360 N644 ROLIN UN644 KARDE UL851 KUGOS/K0833F360 M860 NETED/N0453F360 DCT BUKOV/K0832F380 N190 MALBE/N0449F380 DCT VADEX DCT VLM |
| Aircraft | A319/M-SDE3FGHIRWY/H |
Departure
| Time | 2026-04-26 02:01 |
|---|---|
| Airport | Tashkent International Airport (UZTT) |
Arrival
| Time | N/A |
|---|---|
| Airport | Václav Havel Airport Prague (LKPR) |
| Time | Latitude | Longitude | Altitude | Speed | Heading |
|---|---|---|---|---|---|
| 2026-04-26 01:36 | 41.26124 | 69.26704 | 1404 ft | 0 kts | 329° |
| 2026-04-26 01:50 | 41.26121 | 69.26706 | 1407 ft | 3 kts | 329° |
| 2026-04-26 01:51 | 41.26099 | 69.26726 | 1412 ft | 4 kts | 326° |
| 2026-04-26 01:51 | 41.26077 | 69.26746 | 1413 ft | 4 kts | 320° |
| 2026-04-26 01:51 | 41.26057 | 69.26771 | 1413 ft | 4 kts | 308° |
| 2026-04-26 01:51 | 41.26044 | 69.26797 | 1409 ft | 1 kts | 295° |
| 2026-04-26 01:52 | 41.26042 | 69.26803 | 1407 ft | 2 kts | 295° |
| 2026-04-26 01:55 | 41.26040 | 69.26797 | 1404 ft | 0 kts | 254° |
| 2026-04-26 01:55 | 41.26038 | 69.26795 | 1404 ft | 2 kts | 236° |
| 2026-04-26 01:56 | 41.26017 | 69.26760 | 1411 ft | 7 kts | 227° |
| 2026-04-26 01:56 | 41.25990 | 69.26705 | 1406 ft | 7 kts | 245° |
| 2026-04-26 01:56 | 41.25972 | 69.26651 | 1410 ft | 6 kts | 245° |
| 2026-04-26 01:56 | 41.25955 | 69.26602 | 1404 ft | 5 kts | 246° |
| 2026-04-26 01:57 | 41.25939 | 69.26552 | 1408 ft | 7 kts | 247° |
| 2026-04-26 01:57 | 41.25916 | 69.26489 | 1409 ft | 8 kts | 229° |
| 2026-04-26 01:57 | 41.25867 | 69.26434 | 1404 ft | 10 kts | 218° |
| 2026-04-26 01:57 | 41.25807 | 69.26372 | 1404 ft | 12 kts | 218° |
| 2026-04-26 01:58 | 41.25749 | 69.26288 | 1406 ft | 13 kts | 242° |
| 2026-04-26 01:58 | 41.25709 | 69.26171 | 1406 ft | 14 kts | 245° |
| 2026-04-26 01:58 | 41.25667 | 69.26059 | 1404 ft | 13 kts | 244° |
| 2026-04-26 01:58 | 41.25633 | 69.25954 | 1409 ft | 12 kts | 246° |
| 2026-04-26 01:59 | 41.25601 | 69.25858 | 1406 ft | 11 kts | 246° |
| 2026-04-26 01:59 | 41.25574 | 69.25802 | 1405 ft | 2 kts | 322° |
| 2026-04-26 01:59 | 41.25587 | 69.25810 | 1407 ft | 2 kts | 24° |
| 2026-04-26 01:59 | 41.25589 | 69.25819 | 1407 ft | 2 kts | 60° |
| 2026-04-26 02:00 | 41.25606 | 69.25938 | 1408 ft | 39 kts | 82° |
| 2026-04-26 02:00 | 41.25678 | 69.26589 | 1412 ft | 101 kts | 81° |
| 2026-04-26 02:00 | 41.25805 | 69.27745 | 1404 ft | 150 kts | 82° |
| 2026-04-26 02:00 | 41.25975 | 69.29234 | 1733 ft | 163 kts | 81° |
| 2026-04-26 02:01 | 41.26159 | 69.30699 | 2337 ft | 159 kts | 82° |
| 2026-04-26 02:01 | 41.26339 | 69.32171 | 2821 ft | 163 kts | 84° |
| 2026-04-26 02:01 | 41.26503 | 69.33688 | 3230 ft | 173 kts | 85° |
| 2026-04-26 02:01 | 41.26673 | 69.35376 | 3482 ft | 196 kts | 85° |
| 2026-04-26 02:02 | 41.26863 | 69.37241 | 3796 ft | 209 kts | 85° |
| 2026-04-26 02:02 | 41.27065 | 69.39181 | 4292 ft | 213 kts | 84° |
| 2026-04-26 02:02 | 41.27274 | 69.41150 | 4826 ft | 217 kts | 85° |
| 2026-04-26 02:02 | 41.27483 | 69.43118 | 5371 ft | 219 kts | 84° |
| 2026-04-26 02:03 | 41.27698 | 69.45135 | 5900 ft | 222 kts | 84° |
| 2026-04-26 02:03 | 41.27917 | 69.47184 | 6431 ft | 225 kts | 84° |
| 2026-04-26 02:03 | 41.28140 | 69.49257 | 6938 ft | 228 kts | 84° |
| 2026-04-26 02:03 | 41.28329 | 69.51381 | 7295 ft | 239 kts | 93° |
| 2026-04-26 02:04 | 41.27874 | 69.53523 | 7551 ft | 249 kts | 124° |
| 2026-04-26 02:04 | 41.26594 | 69.55164 | 7705 ft | 267 kts | 155° |
| 2026-04-26 02:04 | 41.24756 | 69.55608 | 8106 ft | 275 kts | 189° |
| 2026-04-26 02:04 | 41.23009 | 69.54601 | 8676 ft | 279 kts | 223° |
| 2026-04-26 02:05 | 41.21726 | 69.52655 | 9337 ft | 282 kts | 232° |
| 2026-04-26 02:05 | 41.20510 | 69.50590 | 10006 ft | 285 kts | 233° |
| 2026-04-26 02:05 | 41.19282 | 69.48458 | 10352 ft | 301 kts | 234° |
| 2026-04-26 02:05 | 41.18147 | 69.46009 | 10481 ft | 322 kts | 245° |
| 2026-04-26 02:06 | 41.17318 | 69.43149 | 10611 ft | 343 kts | 255° |
| 2026-04-26 02:06 | 41.16860 | 69.39973 | 10878 ft | 356 kts | 262° |
| 2026-04-26 02:06 | 41.16526 | 69.36746 | 11412 ft | 360 kts | 265° |
| 2026-04-26 02:06 | 41.16622 | 69.33420 | 12008 ft | 362 kts | 277° |
| 2026-04-26 02:07 | 41.16923 | 69.30097 | 12636 ft | 364 kts | 277° |
| 2026-04-26 02:07 | 41.17225 | 69.26746 | 13264 ft | 366 kts | 277° |
| 2026-04-26 02:07 | 41.17523 | 69.23383 | 13871 ft | 368 kts | 277° |
| 2026-04-26 02:07 | 41.17821 | 69.19999 | 14398 ft | 370 kts | 277° |
| 2026-04-26 02:08 | 41.18121 | 69.16599 | 14930 ft | 372 kts | 276° |
| 2026-04-26 02:08 | 41.18424 | 69.13168 | 15455 ft | 375 kts | 276° |
| 2026-04-26 02:08 | 41.18729 | 69.09720 | 15971 ft | 377 kts | 276° |
| 2026-04-26 02:08 | 41.19035 | 69.06253 | 16486 ft | 380 kts | 276° |
| 2026-04-26 02:09 | 41.19341 | 69.02757 | 16996 ft | 382 kts | 276° |
| 2026-04-26 02:09 | 41.19646 | 68.99240 | 17501 ft | 385 kts | 275° |
| 2026-04-26 02:09 | 41.19951 | 68.95699 | 18007 ft | 387 kts | 275° |
| 2026-04-26 02:09 | 41.20255 | 68.92179 | 18477 ft | 390 kts | 275° |
| 2026-04-26 02:10 | 41.20565 | 68.88591 | 18893 ft | 392 kts | 275° |
| 2026-04-26 02:10 | 41.20877 | 68.84983 | 19305 ft | 394 kts | 275° |
| 2026-04-26 02:10 | 41.21189 | 68.81352 | 19721 ft | 396 kts | 275° |
| 2026-04-26 02:10 | 41.21499 | 68.77698 | 20129 ft | 398 kts | 275° |
| 2026-04-26 02:11 | 41.21807 | 68.74035 | 20524 ft | 400 kts | 275° |
| 2026-04-26 02:11 | 41.22117 | 68.70352 | 20915 ft | 402 kts | 274° |
| 2026-04-26 02:11 | 41.22429 | 68.66649 | 21302 ft | 404 kts | 274° |
| 2026-04-26 02:11 | 41.22741 | 68.62922 | 21687 ft | 406 kts | 274° |
| 2026-04-26 02:12 | 41.23053 | 68.59183 | 22061 ft | 408 kts | 274° |
| 2026-04-26 02:12 | 41.23363 | 68.55431 | 22435 ft | 410 kts | 274° |
| 2026-04-26 02:12 | 41.23676 | 68.51653 | 22783 ft | 412 kts | 274° |
| 2026-04-26 02:12 | 41.23991 | 68.47861 | 23141 ft | 414 kts | 274° |
| 2026-04-26 02:13 | 41.24306 | 68.44055 | 23496 ft | 416 kts | 274° |
| 2026-04-26 02:13 | 41.24619 | 68.40226 | 23798 ft | 417 kts | 274° |
| 2026-04-26 02:13 | 41.24931 | 68.36389 | 24090 ft | 419 kts | 274° |
| 2026-04-26 02:13 | 41.25244 | 68.32530 | 24382 ft | 421 kts | 274° |
| 2026-04-26 02:14 | 41.25555 | 68.28663 | 24678 ft | 422 kts | 274° |
| 2026-04-26 02:14 | 41.25865 | 68.24777 | 24957 ft | 423 kts | 274° |
| 2026-04-26 02:14 | 41.26174 | 68.20886 | 25237 ft | 425 kts | 274° |
| 2026-04-26 02:14 | 41.26484 | 68.16977 | 25515 ft | 426 kts | 274° |
| 2026-04-26 02:15 | 41.26797 | 68.13057 | 25784 ft | 427 kts | 274° |
| 2026-04-26 02:15 | 41.27112 | 68.09115 | 26054 ft | 429 kts | 274° |
| 2026-04-26 02:15 | 41.27424 | 68.05161 | 26306 ft | 430 kts | 274° |
| 2026-04-26 02:15 | 41.27734 | 68.01203 | 26561 ft | 432 kts | 274° |
| 2026-04-26 02:16 | 41.28037 | 67.97276 | 26807 ft | 433 kts | 273° |
| 2026-04-26 02:16 | 41.28370 | 67.93284 | 27047 ft | 436 kts | 276° |
| 2026-04-26 02:16 | 41.28966 | 67.89321 | 27285 ft | 438 kts | 279° |
| 2026-04-26 02:16 | 41.29592 | 67.85353 | 27527 ft | 439 kts | 279° |
| 2026-04-26 02:17 | 41.30208 | 67.81363 | 27765 ft | 441 kts | 278° |
| 2026-04-26 02:17 | 41.30823 | 67.77363 | 27993 ft | 442 kts | 278° |
| 2026-04-26 02:17 | 41.31440 | 67.73351 | 28235 ft | 443 kts | 278° |
| 2026-04-26 02:17 | 41.32054 | 67.69343 | 28581 ft | 442 kts | 278° |
| 2026-04-26 02:18 | 41.32665 | 67.65344 | 28936 ft | 440 kts | 278° |
| 2026-04-26 02:18 | 41.33274 | 67.61360 | 29267 ft | 439 kts | 278° |
| 2026-04-26 02:18 | 41.33885 | 67.57379 | 29605 ft | 438 kts | 278° |
| 2026-04-26 02:18 | 41.34493 | 67.53412 | 29945 ft | 437 kts | 278° |
| 2026-04-26 02:19 | 41.35100 | 67.49445 | 30251 ft | 436 kts | 278° |
| 2026-04-26 02:19 | 41.35703 | 67.45499 | 30557 ft | 434 kts | 278° |
| 2026-04-26 02:19 | 41.36304 | 67.41569 | 30880 ft | 432 kts | 278° |
| 2026-04-26 02:19 | 41.36897 | 67.37660 | 31211 ft | 430 kts | 278° |
| 2026-04-26 02:20 | 41.37488 | 67.33770 | 31545 ft | 427 kts | 278° |
| 2026-04-26 02:20 | 41.38073 | 67.29901 | 31872 ft | 425 kts | 278° |
| 2026-04-26 02:20 | 41.38654 | 67.26051 | 32206 ft | 423 kts | 278° |
| 2026-04-26 02:20 | 41.39225 | 67.22273 | 32535 ft | 420 kts | 277° |
| 2026-04-26 02:21 | 41.39798 | 67.18466 | 32866 ft | 418 kts | 277° |
| 2026-04-26 02:21 | 41.40366 | 67.14677 | 33193 ft | 416 kts | 277° |
| 2026-04-26 02:21 | 41.40927 | 67.10915 | 33507 ft | 413 kts | 277° |
| 2026-04-26 02:21 | 41.41484 | 67.07167 | 33838 ft | 411 kts | 277° |
| 2026-04-26 02:22 | 41.42041 | 67.03433 | 33988 ft | 410 kts | 277° |
| 2026-04-26 02:22 | 41.43144 | 66.95979 | 34003 ft | 409 kts | 277° |
| 2026-04-26 02:23 | 41.44229 | 66.88539 | 33991 ft | 409 kts | 277° |
| 2026-04-26 02:23 | 41.45312 | 66.81093 | 33984 ft | 409 kts | 277° |
| 2026-04-26 02:24 | 41.46406 | 66.73649 | 33986 ft | 409 kts | 277° |
| 2026-04-26 02:24 | 41.47495 | 66.66205 | 33987 ft | 409 kts | 277° |
| 2026-04-26 02:25 | 41.48281 | 66.58728 | 33989 ft | 404 kts | 267° |
| 2026-04-26 02:25 | 41.48285 | 66.51230 | 33989 ft | 404 kts | 267° |
| 2026-04-26 02:26 | 41.48300 | 66.43727 | 33989 ft | 405 kts | 267° |
| 2026-04-26 02:26 | 41.48316 | 66.36217 | 33995 ft | 405 kts | 267° |
| 2026-04-26 02:27 | 41.48323 | 66.28716 | 33996 ft | 405 kts | 267° |
| 2026-04-26 02:27 | 41.48323 | 66.21213 | 33996 ft | 404 kts | 267° |
| 2026-04-26 02:28 | 41.48317 | 66.13713 | 34001 ft | 404 kts | 267° |
| 2026-04-26 02:28 | 41.48317 | 66.06215 | 34004 ft | 404 kts | 267° |
| 2026-04-26 02:29 | 41.48305 | 65.98768 | 34006 ft | 404 kts | 267° |
| 2026-04-26 02:29 | 41.48284 | 65.91266 | 34010 ft | 404 kts | 267° |
| 2026-04-26 02:30 | 41.48259 | 65.83767 | 34011 ft | 404 kts | 267° |
| 2026-04-26 02:30 | 41.48232 | 65.76278 | 34016 ft | 404 kts | 266° |
| 2026-04-26 02:31 | 41.48162 | 65.68782 | 34016 ft | 404 kts | 266° |
| 2026-04-26 02:31 | 41.48065 | 65.61289 | 34014 ft | 404 kts | 266° |
| 2026-04-26 02:32 | 41.47965 | 65.53786 | 34012 ft | 405 kts | 266° |
| 2026-04-26 02:32 | 41.47862 | 65.46276 | 34009 ft | 405 kts | 266° |
| 2026-04-26 02:33 | 41.47767 | 65.38749 | 34008 ft | 406 kts | 266° |
| 2026-04-26 02:33 | 41.47672 | 65.31213 | 34015 ft | 407 kts | 266° |
| 2026-04-26 02:34 | 41.47569 | 65.23719 | 34015 ft | 407 kts | 266° |
| 2026-04-26 02:34 | 41.47456 | 65.16117 | 34011 ft | 408 kts | 266° |
| 2026-04-26 02:35 | 41.47332 | 65.08606 | 34015 ft | 408 kts | 265° |
| 2026-04-26 02:35 | 41.47198 | 65.01026 | 34016 ft | 409 kts | 265° |
| 2026-04-26 02:36 | 41.47073 | 64.93441 | 34015 ft | 410 kts | 265° |
| 2026-04-26 02:36 | 41.46945 | 64.85833 | 34021 ft | 410 kts | 265° |
| 2026-04-26 02:37 | 41.46827 | 64.79458 | 34027 ft | 411 kts | 265° |
| 2026-04-26 02:37 | 41.46681 | 64.71842 | 34026 ft | 411 kts | 265° |
| 2026-04-26 02:38 | 41.46535 | 64.64263 | 34036 ft | 412 kts | 265° |
| 2026-04-26 02:38 | 41.46379 | 64.56629 | 34046 ft | 412 kts | 265° |
| 2026-04-26 02:39 | 41.46221 | 64.48990 | 34050 ft | 412 kts | 265° |
| 2026-04-26 02:39 | 41.46057 | 64.41347 | 34056 ft | 412 kts | 265° |
| 2026-04-26 02:40 | 41.45881 | 64.33706 | 34063 ft | 412 kts | 265° |
| 2026-04-26 02:40 | 41.45698 | 64.26076 | 34068 ft | 412 kts | 265° |
| 2026-04-26 02:41 | 41.45522 | 64.18441 | 34073 ft | 412 kts | 265° |
| 2026-04-26 02:41 | 41.45341 | 64.10810 | 34083 ft | 411 kts | 265° |
| 2026-04-26 02:42 | 41.45150 | 64.03183 | 34084 ft | 411 kts | 265° |
| 2026-04-26 02:42 | 41.44951 | 63.95575 | 34090 ft | 411 kts | 265° |
| 2026-04-26 02:43 | 41.44654 | 63.84175 | 34095 ft | 410 kts | 265° |
| 2026-04-26 02:43 | 41.44448 | 63.76632 | 34097 ft | 409 kts | 265° |
| 2026-04-26 02:44 | 41.44234 | 63.69054 | 34103 ft | 409 kts | 265° |
| 2026-04-26 02:44 | 41.44022 | 63.61477 | 34107 ft | 409 kts | 265° |
| 2026-04-26 02:45 | 41.43793 | 63.53915 | 34110 ft | 408 kts | 264° |
| 2026-04-26 02:45 | 41.43558 | 63.46356 | 34114 ft | 408 kts | 264° |
| 2026-04-26 02:46 | 41.43312 | 63.38800 | 34116 ft | 408 kts | 264° |
| 2026-04-26 02:46 | 41.43058 | 63.31253 | 34121 ft | 408 kts | 264° |
| 2026-04-26 02:47 | 41.42805 | 63.23705 | 34122 ft | 408 kts | 264° |
| 2026-04-26 02:47 | 41.42552 | 63.16153 | 34123 ft | 407 kts | 264° |
| 2026-04-26 02:48 | 41.42290 | 63.08607 | 34129 ft | 407 kts | 264° |
| 2026-04-26 02:48 | 41.42021 | 63.01067 | 34129 ft | 407 kts | 264° |
| 2026-04-26 02:49 | 41.41755 | 62.93531 | 34136 ft | 407 kts | 264° |
| 2026-04-26 02:49 | 41.41481 | 62.85991 | 34138 ft | 407 kts | 264° |
| 2026-04-26 02:50 | 41.41198 | 62.78460 | 34145 ft | 407 kts | 264° |
| 2026-04-26 02:50 | 41.40905 | 62.70975 | 34146 ft | 407 kts | 264° |
| 2026-04-26 02:51 | 41.40614 | 62.63457 | 34151 ft | 406 kts | 264° |
| 2026-04-26 02:51 | 41.40324 | 62.55933 | 34154 ft | 406 kts | 264° |
| 2026-04-26 02:52 | 41.40022 | 62.48420 | 34152 ft | 406 kts | 264° |
| 2026-04-26 02:52 | 41.39734 | 62.40917 | 34157 ft | 406 kts | 264° |
| 2026-04-26 02:53 | 41.39460 | 62.33416 | 34161 ft | 406 kts | 264° |
| 2026-04-26 02:53 | 41.39188 | 62.25911 | 34169 ft | 405 kts | 264° |
| 2026-04-26 02:54 | 41.38902 | 62.18413 | 34172 ft | 405 kts | 264° |
| 2026-04-26 02:54 | 41.38604 | 62.10928 | 34183 ft | 405 kts | 264° |
| 2026-04-26 02:55 | 41.38290 | 62.03455 | 34184 ft | 404 kts | 264° |
| 2026-04-26 02:55 | 41.37982 | 61.95996 | 34192 ft | 403 kts | 264° |
| 2026-04-26 02:56 | 41.37672 | 61.88539 | 34189 ft | 403 kts | 264° |
| 2026-04-26 02:56 | 41.37360 | 61.81094 | 34193 ft | 403 kts | 264° |
| 2026-04-26 02:57 | 41.37044 | 61.73656 | 34198 ft | 402 kts | 264° |
| 2026-04-26 02:57 | 41.36716 | 61.66228 | 34204 ft | 402 kts | 264° |
| 2026-04-26 02:58 | 41.36385 | 61.58805 | 34205 ft | 401 kts | 264° |
| 2026-04-26 02:58 | 41.36057 | 61.51443 | 34203 ft | 401 kts | 264° |
| 2026-04-26 02:59 | 41.35723 | 61.44043 | 34209 ft | 400 kts | 264° |
| 2026-04-26 02:59 | 41.35406 | 61.36650 | 34208 ft | 400 kts | 264° |
| 2026-04-26 03:00 | 41.35078 | 61.29265 | 34206 ft | 399 kts | 264° |
| 2026-04-26 03:00 | 41.34727 | 61.21886 | 34212 ft | 399 kts | 264° |
| 2026-04-26 03:01 | 41.34363 | 61.14503 | 34216 ft | 399 kts | 264° |
| 2026-04-26 03:01 | 41.34009 | 61.07141 | 34218 ft | 399 kts | 264° |
| 2026-04-26 03:02 | 41.33651 | 60.99775 | 34219 ft | 399 kts | 264° |
| 2026-04-26 03:02 | 41.33287 | 60.92408 | 34216 ft | 399 kts | 264° |
| 2026-04-26 03:03 | 41.32916 | 60.85055 | 34219 ft | 398 kts | 264° |
| 2026-04-26 03:03 | 41.32540 | 60.77701 | 34217 ft | 398 kts | 264° |
| 2026-04-26 03:04 | 41.32157 | 60.70404 | 34219 ft | 398 kts | 264° |
| 2026-04-26 03:04 | 41.31770 | 60.63052 | 34220 ft | 398 kts | 264° |
| 2026-04-26 03:05 | 41.31388 | 60.55704 | 34219 ft | 398 kts | 264° |
| 2026-04-26 03:05 | 41.30996 | 60.48359 | 34224 ft | 398 kts | 264° |
| 2026-04-26 03:06 | 41.30772 | 60.40997 | 34220 ft | 400 kts | 271° |
| 2026-04-26 03:06 | 41.31151 | 60.33610 | 34227 ft | 400 kts | 271° |
| 2026-04-26 03:07 | 41.31519 | 60.26227 | 34235 ft | 400 kts | 271° |
| 2026-04-26 03:07 | 41.31878 | 60.18832 | 34239 ft | 400 kts | 271° |
| 2026-04-26 03:08 | 41.32233 | 60.11438 | 34239 ft | 400 kts | 271° |
| 2026-04-26 03:08 | 41.32578 | 60.04058 | 34242 ft | 400 kts | 271° |
| 2026-04-26 03:09 | 41.32938 | 59.96679 | 34242 ft | 399 kts | 271° |
| 2026-04-26 03:09 | 41.33295 | 59.89312 | 34250 ft | 399 kts | 271° |
| 2026-04-26 03:10 | 41.33641 | 59.81952 | 34248 ft | 398 kts | 271° |
| 2026-04-26 03:10 | 41.33985 | 59.74603 | 34251 ft | 397 kts | 271° |
| 2026-04-26 03:11 | 41.34290 | 59.67272 | 34248 ft | 396 kts | 268° |
| 2026-04-26 03:11 | 41.33727 | 59.60009 | 34248 ft | 395 kts | 262° |
| 2026-04-26 03:12 | 41.33048 | 59.52763 | 34252 ft | 394 kts | 262° |
| 2026-04-26 03:12 | 41.32378 | 59.45570 | 34257 ft | 394 kts | 262° |
| 2026-04-26 03:13 | 41.31695 | 59.38344 | 34253 ft | 394 kts | 262° |
| 2026-04-26 03:13 | 41.31006 | 59.31120 | 34257 ft | 393 kts | 262° |
| 2026-04-26 03:14 | 41.30312 | 59.23906 | 34263 ft | 393 kts | 262° |
| 2026-04-26 03:14 | 41.29613 | 59.16698 | 34262 ft | 393 kts | 262° |
| 2026-04-26 03:15 | 41.28909 | 59.09497 | 34265 ft | 393 kts | 262° |
| 2026-04-26 03:15 | 41.28207 | 59.02299 | 34264 ft | 392 kts | 262° |
| 2026-04-26 03:16 | 41.27502 | 58.95105 | 34266 ft | 392 kts | 262° |
| 2026-04-26 03:16 | 41.26797 | 58.87914 | 34272 ft | 392 kts | 262° |
| 2026-04-26 03:17 | 41.26077 | 58.80731 | 34269 ft | 392 kts | 262° |
| 2026-04-26 03:17 | 41.25355 | 58.73551 | 34270 ft | 392 kts | 262° |
| 2026-04-26 03:18 | 41.24634 | 58.66373 | 34270 ft | 392 kts | 262° |
| 2026-04-26 03:18 | 41.23901 | 58.59204 | 34277 ft | 392 kts | 261° |
| 2026-04-26 03:19 | 41.23159 | 58.52036 | 34279 ft | 392 kts | 261° |
| 2026-04-26 03:19 | 41.22420 | 58.44869 | 34285 ft | 392 kts | 261° |
| 2026-04-26 03:20 | 41.21679 | 58.37704 | 34288 ft | 391 kts | 261° |
| 2026-04-26 03:20 | 41.20939 | 58.30594 | 34295 ft | 391 kts | 261° |
| 2026-04-26 03:21 | 41.20195 | 58.23428 | 34294 ft | 391 kts | 261° |
| 2026-04-26 03:21 | 41.19434 | 58.16273 | 34291 ft | 391 kts | 261° |
| 2026-04-26 03:22 | 41.18648 | 58.09124 | 34293 ft | 391 kts | 261° |
| 2026-04-26 03:22 | 41.18002 | 58.03181 | 34291 ft | 391 kts | 261° |
| 2026-04-26 03:23 | 41.17232 | 57.96026 | 34289 ft | 392 kts | 261° |
| 2026-04-26 03:23 | 41.16463 | 57.88868 | 34298 ft | 392 kts | 261° |
| 2026-04-26 03:24 | 41.15688 | 57.81706 | 34293 ft | 392 kts | 261° |
| 2026-04-26 03:24 | 41.14909 | 57.74544 | 34304 ft | 392 kts | 261° |
| 2026-04-26 03:25 | 41.14127 | 57.67381 | 34306 ft | 393 kts | 261° |
| 2026-04-26 03:25 | 41.13328 | 57.60213 | 34300 ft | 393 kts | 261° |
| 2026-04-26 03:26 | 41.12534 | 57.53036 | 34304 ft | 393 kts | 261° |
| 2026-04-26 03:26 | 41.11730 | 57.45864 | 34305 ft | 393 kts | 261° |
| 2026-04-26 03:27 | 41.10919 | 57.38688 | 34312 ft | 393 kts | 261° |
| 2026-04-26 03:27 | 41.10105 | 57.31514 | 34315 ft | 394 kts | 261° |
| 2026-04-26 03:28 | 41.09297 | 57.24389 | 34317 ft | 394 kts | 261° |
| 2026-04-26 03:28 | 41.08474 | 57.17215 | 34318 ft | 394 kts | 261° |
| 2026-04-26 03:29 | 41.07648 | 57.10046 | 34323 ft | 394 kts | 261° |
| 2026-04-26 03:29 | 41.06823 | 57.02872 | 34325 ft | 394 kts | 261° |
| 2026-04-26 03:30 | 41.05990 | 56.95696 | 34325 ft | 394 kts | 261° |
| 2026-04-26 03:30 | 41.05146 | 56.88521 | 34336 ft | 394 kts | 261° |
| 2026-04-26 03:31 | 41.04298 | 56.81349 | 34329 ft | 394 kts | 261° |
| 2026-04-26 03:31 | 41.03453 | 56.74171 | 34328 ft | 394 kts | 261° |
| 2026-04-26 03:32 | 41.02601 | 56.66988 | 34325 ft | 395 kts | 261° |
| 2026-04-26 03:32 | 41.01740 | 56.59806 | 34325 ft | 395 kts | 261° |
| 2026-04-26 03:33 | 41.00866 | 56.52624 | 34325 ft | 395 kts | 261° |
| 2026-04-26 03:33 | 41.00584 | 56.45360 | 34321 ft | 396 kts | 268° |
| 2026-04-26 03:34 | 41.00514 | 56.38068 | 34319 ft | 396 kts | 268° |
| 2026-04-26 03:34 | 41.00427 | 56.30816 | 34321 ft | 397 kts | 268° |
| 2026-04-26 03:35 | 41.00327 | 56.23518 | 34322 ft | 397 kts | 268° |
| 2026-04-26 03:35 | 41.00223 | 56.16210 | 34326 ft | 397 kts | 268° |
| 2026-04-26 03:36 | 41.00118 | 56.08909 | 34327 ft | 397 kts | 268° |
| 2026-04-26 03:36 | 41.00011 | 56.01590 | 34332 ft | 397 kts | 268° |
| 2026-04-26 03:37 | 40.99910 | 55.94279 | 34339 ft | 397 kts | 268° |
| 2026-04-26 03:37 | 40.99800 | 55.86960 | 34334 ft | 397 kts | 268° |
| 2026-04-26 03:38 | 40.99674 | 55.79643 | 34338 ft | 397 kts | 268° |
| 2026-04-26 03:38 | 40.99548 | 55.72334 | 34327 ft | 397 kts | 268° |
| 2026-04-26 03:39 | 40.99441 | 55.65055 | 34333 ft | 397 kts | 268° |
| 2026-04-26 03:39 | 40.99326 | 55.57743 | 34333 ft | 397 kts | 268° |
| 2026-04-26 03:40 | 40.99207 | 55.50422 | 34332 ft | 398 kts | 268° |
| 2026-04-26 03:40 | 40.99079 | 55.43102 | 34330 ft | 398 kts | 267° |
| 2026-04-26 03:41 | 40.98941 | 55.35787 | 34338 ft | 398 kts | 268° |
| 2026-04-26 03:41 | 40.98806 | 55.28463 | 34335 ft | 398 kts | 268° |
| 2026-04-26 03:42 | 40.98667 | 55.21144 | 34334 ft | 398 kts | 267° |
| 2026-04-26 03:42 | 40.98518 | 55.13867 | 34333 ft | 398 kts | 267° |
| 2026-04-26 03:43 | 40.98364 | 55.06547 | 34332 ft | 397 kts | 267° |
| 2026-04-26 03:43 | 40.98206 | 54.99231 | 34331 ft | 397 kts | 267° |
| 2026-04-26 03:44 | 40.98040 | 54.91923 | 34330 ft | 397 kts | 267° |
| 2026-04-26 03:44 | 40.97874 | 54.84621 | 34329 ft | 397 kts | 267° |
| 2026-04-26 03:45 | 40.97703 | 54.77318 | 34326 ft | 397 kts | 267° |
| 2026-04-26 03:45 | 40.97522 | 54.70029 | 34324 ft | 396 kts | 267° |
| 2026-04-26 03:46 | 40.97336 | 54.62740 | 34324 ft | 396 kts | 267° |
| 2026-04-26 03:47 | 40.97049 | 54.51808 | 34322 ft | 396 kts | 267° |
| 2026-04-26 03:47 | 40.96860 | 54.44522 | 34320 ft | 396 kts | 267° |
| 2026-04-26 03:48 | 40.96683 | 54.37282 | 34321 ft | 396 kts | 267° |
| 2026-04-26 03:48 | 40.96486 | 54.30006 | 34320 ft | 395 kts | 266° |
| 2026-04-26 03:49 | 40.96279 | 54.22733 | 34325 ft | 395 kts | 266° |
| 2026-04-26 03:49 | 40.96063 | 54.15465 | 34325 ft | 395 kts | 266° |
| 2026-04-26 03:50 | 40.95843 | 54.08207 | 34329 ft | 395 kts | 266° |
| 2026-04-26 03:50 | 40.95617 | 54.00955 | 34323 ft | 394 kts | 266° |
| 2026-04-26 03:51 | 40.95391 | 53.93711 | 34323 ft | 394 kts | 266° |
| 2026-04-26 03:51 | 40.95161 | 53.86479 | 34323 ft | 393 kts | 266° |
| 2026-04-26 03:52 | 40.94925 | 53.79256 | 34321 ft | 393 kts | 266° |
| 2026-04-26 03:52 | 40.94686 | 53.72033 | 34318 ft | 393 kts | 266° |
| 2026-04-26 03:53 | 40.94437 | 53.64818 | 34318 ft | 392 kts | 266° |
| 2026-04-26 03:53 | 40.94185 | 53.57608 | 34311 ft | 392 kts | 266° |
| 2026-04-26 03:54 | 40.93932 | 53.50404 | 34309 ft | 392 kts | 266° |
| 2026-04-26 03:54 | 40.93672 | 53.43200 | 34307 ft | 392 kts | 266° |
| 2026-04-26 03:55 | 40.93412 | 53.36035 | 34308 ft | 392 kts | 266° |
| 2026-04-26 03:55 | 40.93144 | 53.28835 | 34304 ft | 392 kts | 266° |
| 2026-04-26 03:56 | 40.92870 | 53.21629 | 34305 ft | 392 kts | 266° |
| 2026-04-26 03:56 | 40.92597 | 53.14417 | 34301 ft | 392 kts | 266° |
| 2026-04-26 03:57 | 40.92318 | 53.07213 | 34302 ft | 392 kts | 266° |
| 2026-04-26 03:57 | 40.92023 | 53.00003 | 34302 ft | 392 kts | 266° |
| 2026-04-26 03:58 | 40.91722 | 52.92800 | 34299 ft | 392 kts | 266° |
| 2026-04-26 03:58 | 40.91422 | 52.85597 | 34304 ft | 392 kts | 266° |
| 2026-04-26 03:59 | 40.91122 | 52.78395 | 34304 ft | 392 kts | 265° |
| 2026-04-26 03:59 | 40.90814 | 52.71243 | 34299 ft | 392 kts | 265° |
| 2026-04-26 04:00 | 40.90494 | 52.63999 | 34298 ft | 392 kts | 265° |
| 2026-04-26 04:00 | 40.89747 | 52.56881 | 34296 ft | 391 kts | 258° |
| 2026-04-26 04:01 | 40.88641 | 52.49884 | 34301 ft | 392 kts | 258° |
| 2026-04-26 04:01 | 40.87537 | 52.42835 | 34297 ft | 392 kts | 258° |
| 2026-04-26 04:02 | 40.86429 | 52.35787 | 34289 ft | 392 kts | 258° |
| 2026-04-26 04:02 | 40.85314 | 52.28735 | 34286 ft | 392 kts | 258° |
| 2026-04-26 04:03 | 40.84200 | 52.21685 | 34282 ft | 392 kts | 258° |
| 2026-04-26 04:03 | 40.83076 | 52.14633 | 34279 ft | 392 kts | 258° |
| 2026-04-26 04:04 | 40.81973 | 52.07559 | 34400 ft | 393 kts | 258° |
| 2026-04-26 04:04 | 40.80919 | 52.00479 | 34609 ft | 393 kts | 259° |
| 2026-04-26 04:04 | 40.80410 | 51.96932 | 34743 ft | 393 kts | 259° |
| 2026-04-26 04:05 | 40.79918 | 51.93421 | 34894 ft | 393 kts | 259° |
| 2026-04-26 04:05 | 40.79433 | 51.89878 | 35066 ft | 392 kts | 260° |
| 2026-04-26 04:05 | 40.78961 | 51.86331 | 35262 ft | 392 kts | 260° |
| 2026-04-26 04:05 | 40.78502 | 51.82795 | 35475 ft | 391 kts | 260° |
| 2026-04-26 04:06 | 40.78055 | 51.79253 | 35703 ft | 390 kts | 261° |
| 2026-04-26 04:06 | 40.77621 | 51.75721 | 35948 ft | 389 kts | 261° |
| 2026-04-26 04:06 | 40.77202 | 51.72204 | 36208 ft | 388 kts | 261° |
| 2026-04-26 04:06 | 40.76796 | 51.68697 | 36477 ft | 386 kts | 261° |
| 2026-04-26 04:07 | 40.76403 | 51.65202 | 36759 ft | 383 kts | 261° |
| 2026-04-26 04:07 | 40.76027 | 51.61741 | 37060 ft | 380 kts | 262° |
| 2026-04-26 04:07 | 40.75666 | 51.58309 | 37384 ft | 376 kts | 262° |
| 2026-04-26 04:07 | 40.75320 | 51.54908 | 37719 ft | 371 kts | 262° |
| 2026-04-26 04:08 | 40.74992 | 51.51556 | 38082 ft | 366 kts | 262° |
| 2026-04-26 04:08 | 40.74680 | 51.48246 | 38442 ft | 361 kts | 263° |
| 2026-04-26 04:08 | 40.74385 | 51.44994 | 38834 ft | 354 kts | 263° |
| 2026-04-26 04:08 | 40.74110 | 51.41830 | 39161 ft | 348 kts | 263° |
| 2026-04-26 04:09 | 40.73850 | 51.38696 | 39464 ft | 340 kts | 263° |
| 2026-04-26 04:09 | 40.73608 | 51.35633 | 39766 ft | 332 kts | 264° |
| 2026-04-26 04:09 | 40.73384 | 51.32644 | 40060 ft | 323 kts | 264° |
| 2026-04-26 04:09 | 40.73179 | 51.29740 | 40334 ft | 314 kts | 264° |
| 2026-04-26 04:10 | 40.72989 | 51.26896 | 40418 ft | 311 kts | 264° |
| 2026-04-26 04:10 | 40.72809 | 51.24029 | 40197 ft | 317 kts | 264° |
| 2026-04-26 04:10 | 40.72636 | 51.21095 | 39967 ft | 323 kts | 265° |
| 2026-04-26 04:11 | 40.72373 | 51.16184 | 40147 ft | 315 kts | 265° |
| 2026-04-26 04:11 | 40.72236 | 51.13327 | 40287 ft | 310 kts | 265° |
| 2026-04-26 04:11 | 40.72113 | 51.10516 | 40179 ft | 314 kts | 265° |
| 2026-04-26 04:11 | 40.71996 | 51.07619 | 39970 ft | 319 kts | 266° |
| 2026-04-26 04:12 | 40.71890 | 51.04690 | 39929 ft | 319 kts | 266° |
| 2026-04-26 04:12 | 40.71797 | 51.01790 | 40071 ft | 314 kts | 266° |
| 2026-04-26 04:12 | 40.71717 | 50.98936 | 40164 ft | 310 kts | 266° |
| 2026-04-26 04:13 | 40.71592 | 50.93189 | 39909 ft | 317 kts | 267° |
| 2026-04-26 04:13 | 40.71511 | 50.87398 | 39992 ft | 313 kts | 268° |
| 2026-04-26 04:14 | 40.71479 | 50.81696 | 39982 ft | 312 kts | 268° |
| 2026-04-26 04:14 | 40.71480 | 50.78819 | 39864 ft | 315 kts | 268° |
| 2026-04-26 04:14 | 40.71492 | 50.75925 | 39846 ft | 315 kts | 268° |
| 2026-04-26 04:15 | 40.71553 | 50.70208 | 39976 ft | 310 kts | 269° |
| 2026-04-26 04:15 | 40.71660 | 50.64498 | 39815 ft | 314 kts | 269° |
| 2026-04-26 04:16 | 40.71813 | 50.58765 | 39874 ft | 311 kts | 270° |
| 2026-04-26 04:16 | 40.72013 | 50.53090 | 39838 ft | 311 kts | 270° |
| 2026-04-26 04:17 | 40.72259 | 50.47376 | 39778 ft | 312 kts | 271° |
| 2026-04-26 04:17 | 40.72552 | 50.41703 | 39828 ft | 309 kts | 271° |
| 2026-04-26 04:18 | 40.72891 | 50.36028 | 39743 ft | 311 kts | 271° |
| 2026-04-26 04:18 | 40.73277 | 50.30354 | 39777 ft | 310 kts | 272° |
| 2026-04-26 04:19 | 40.73709 | 50.24705 | 39747 ft | 310 kts | 272° |
| 2026-04-26 04:19 | 40.74184 | 50.19082 | 39721 ft | 310 kts | 273° |
| 2026-04-26 04:20 | 40.74708 | 50.13448 | 39740 ft | 309 kts | 274° |
| 2026-04-26 04:20 | 40.75278 | 50.07811 | 39683 ft | 311 kts | 274° |
| 2026-04-26 04:21 | 40.75894 | 50.02182 | 39716 ft | 309 kts | 275° |
| 2026-04-26 04:21 | 40.76556 | 49.96570 | 39686 ft | 310 kts | 275° |
| 2026-04-26 04:22 | 40.77265 | 49.90957 | 39678 ft | 309 kts | 276° |
| 2026-04-26 04:22 | 40.78018 | 49.85372 | 39675 ft | 309 kts | 276° |
| 2026-04-26 04:23 | 40.78818 | 49.79785 | 39651 ft | 310 kts | 276° |
| 2026-04-26 04:23 | 40.79658 | 49.74249 | 39658 ft | 309 kts | 277° |
| 2026-04-26 04:24 | 40.80550 | 49.68686 | 39634 ft | 310 kts | 277° |
| 2026-04-26 04:24 | 40.81487 | 49.63138 | 39635 ft | 310 kts | 278° |
| 2026-04-26 04:25 | 40.82470 | 49.57602 | 39627 ft | 310 kts | 278° |
| 2026-04-26 04:25 | 40.83499 | 49.52076 | 39608 ft | 310 kts | 279° |
| 2026-04-26 04:26 | 40.84575 | 49.46557 | 39589 ft | 311 kts | 279° |
| 2026-04-26 04:26 | 40.85698 | 49.41044 | 39578 ft | 311 kts | 280° |
| 2026-04-26 04:27 | 40.86860 | 49.35577 | 39560 ft | 311 kts | 280° |
| 2026-04-26 04:27 | 40.88076 | 49.30079 | 39547 ft | 312 kts | 281° |
| 2026-04-26 04:28 | 40.89337 | 49.24593 | 39545 ft | 312 kts | 281° |
| 2026-04-26 04:28 | 40.90644 | 49.19122 | 39526 ft | 312 kts | 282° |
| 2026-04-26 04:29 | 40.92000 | 49.13646 | 39505 ft | 314 kts | 282° |
| 2026-04-26 04:29 | 40.93400 | 49.08192 | 39542 ft | 313 kts | 283° |
| 2026-04-26 04:30 | 40.94847 | 49.02739 | 39528 ft | 315 kts | 283° |
| 2026-04-26 04:30 | 40.96338 | 48.97293 | 39554 ft | 315 kts | 284° |
| 2026-04-26 04:31 | 40.97874 | 48.91859 | 39562 ft | 316 kts | 284° |
| 2026-04-26 04:31 | 40.99458 | 48.86421 | 39580 ft | 317 kts | 285° |
| 2026-04-26 04:32 | 41.01078 | 48.81023 | 39667 ft | 315 kts | 285° |
| 2026-04-26 04:32 | 41.02745 | 48.75620 | 39573 ft | 318 kts | 286° |
| 2026-04-26 04:33 | 41.04463 | 48.70201 | 39547 ft | 318 kts | 287° |
| 2026-04-26 04:33 | 41.06220 | 48.64822 | 39509 ft | 318 kts | 286° |
| 2026-04-26 04:34 | 41.08024 | 48.59451 | 39510 ft | 319 kts | 287° |
| 2026-04-26 04:34 | 41.09860 | 48.54140 | 39572 ft | 318 kts | 288° |
| 2026-04-26 04:35 | 41.11750 | 48.48812 | 39528 ft | 321 kts | 288° |
| 2026-04-26 04:35 | 41.13691 | 48.43476 | 39574 ft | 321 kts | 289° |
| 2026-04-26 04:36 | 41.15673 | 48.38168 | 39581 ft | 322 kts | 289° |
| 2026-04-26 04:36 | 41.17705 | 48.32846 | 39543 ft | 324 kts | 290° |
| 2026-04-26 04:37 | 41.19785 | 48.27538 | 39599 ft | 323 kts | 290° |
| 2026-04-26 04:37 | 41.21911 | 48.22231 | 39546 ft | 327 kts | 291° |
| 2026-04-26 04:38 | 41.24088 | 48.16923 | 39617 ft | 326 kts | 291° |
| 2026-04-26 04:38 | 41.26279 | 48.11710 | 39572 ft | 327 kts | 291° |
| 2026-04-26 04:39 | 41.28537 | 48.06458 | 39536 ft | 326 kts | 292° |
| 2026-04-26 04:39 | 41.30829 | 48.01250 | 39319 ft | 328 kts | 292° |
| 2026-04-26 04:40 | 41.33164 | 47.96057 | 39366 ft | 325 kts | 293° |
| 2026-04-26 04:40 | 41.35537 | 47.90920 | 39408 ft | 326 kts | 294° |
| 2026-04-26 04:41 | 41.37937 | 47.85839 | 39425 ft | 328 kts | 294° |
| 2026-04-26 04:41 | 41.40405 | 47.80724 | 39472 ft | 328 kts | 295° |
| 2026-04-26 04:42 | 41.42909 | 47.75651 | 39485 ft | 329 kts | 295° |
| 2026-04-26 04:42 | 41.45481 | 47.70535 | 39478 ft | 332 kts | 296° |
| 2026-04-26 04:42 | 41.46779 | 47.68003 | 39584 ft | 329 kts | 296° |
| 2026-04-26 04:43 | 41.48077 | 47.65502 | 39609 ft | 328 kts | 296° |
| 2026-04-26 04:43 | 41.50730 | 47.60459 | 39411 ft | 336 kts | 297° |
| 2026-04-26 04:44 | 41.53440 | 47.55415 | 39569 ft | 330 kts | 297° |
| 2026-04-26 04:44 | 41.56163 | 47.50468 | 39485 ft | 332 kts | 298° |
| 2026-04-26 04:44 | 41.57560 | 47.47960 | 39293 ft | 340 kts | 298° |
| 2026-04-26 04:45 | 41.58975 | 47.45434 | 39346 ft | 338 kts | 298° |
| 2026-04-26 04:45 | 41.60381 | 47.42960 | 39567 ft | 332 kts | 299° |
| 2026-04-26 04:45 | 41.61784 | 47.40526 | 39643 ft | 330 kts | 299° |
| 2026-04-26 04:45 | 41.63207 | 47.38075 | 39486 ft | 336 kts | 299° |
| 2026-04-26 04:46 | 41.64654 | 47.35595 | 39336 ft | 339 kts | 299° |
| 2026-04-26 04:46 | 41.67569 | 47.30671 | 39442 ft | 336 kts | 300° |
| 2026-04-26 04:47 | 41.70500 | 47.25818 | 39441 ft | 337 kts | 300° |
| 2026-04-26 04:47 | 41.73474 | 47.20955 | 39384 ft | 340 kts | 301° |
| 2026-04-26 04:48 | 41.78005 | 47.13692 | 39409 ft | 341 kts | 302° |
| 2026-04-26 04:48 | 41.79543 | 47.11256 | 39291 ft | 343 kts | 302° |
| 2026-04-26 04:48 | 41.81088 | 47.08829 | 39259 ft | 341 kts | 302° |
| 2026-04-26 04:49 | 41.84179 | 47.04045 | 39272 ft | 338 kts | 303° |
| 2026-04-26 04:49 | 41.87309 | 46.99268 | 39251 ft | 341 kts | 303° |
| 2026-04-26 04:50 | 41.88879 | 46.96901 | 39368 ft | 338 kts | 303° |
| 2026-04-26 04:50 | 41.90450 | 46.94554 | 39416 ft | 338 kts | 303° |
| 2026-04-26 04:50 | 41.93630 | 46.89846 | 39317 ft | 342 kts | 304° |
| 2026-04-26 04:51 | 41.96854 | 46.85140 | 39450 ft | 341 kts | 304° |
| 2026-04-26 04:51 | 42.00097 | 46.80472 | 39445 ft | 344 kts | 305° |
| 2026-04-26 04:52 | 42.03392 | 46.75784 | 39562 ft | 342 kts | 305° |
| 2026-04-26 04:52 | 42.05008 | 46.73517 | 39702 ft | 339 kts | 305° |
| 2026-04-26 04:52 | 42.06649 | 46.71232 | 39675 ft | 341 kts | 306° |
| 2026-04-26 04:53 | 42.08311 | 46.68927 | 39537 ft | 345 kts | 305° |
| 2026-04-26 04:53 | 42.09992 | 46.66602 | 39451 ft | 348 kts | 306° |
| 2026-04-26 04:53 | 42.11686 | 46.64274 | 39560 ft | 345 kts | 306° |
| 2026-04-26 04:53 | 42.13362 | 46.61997 | 39716 ft | 340 kts | 306° |
| 2026-04-26 04:54 | 42.16719 | 46.57482 | 39423 ft | 346 kts | 307° |
| 2026-04-26 04:54 | 42.18443 | 46.55167 | 39200 ft | 350 kts | 307° |
| 2026-04-26 04:54 | 42.20172 | 46.52860 | 39281 ft | 348 kts | 306° |
| 2026-04-26 04:55 | 42.21884 | 46.50602 | 39585 ft | 339 kts | 307° |
| 2026-04-26 04:55 | 42.23568 | 46.48407 | 39703 ft | 337 kts | 307° |
| 2026-04-26 04:55 | 42.25275 | 46.46190 | 39509 ft | 345 kts | 307° |
| 2026-04-26 04:55 | 42.27025 | 46.43911 | 39353 ft | 352 kts | 307° |
| 2026-04-26 04:56 | 42.28789 | 46.41626 | 39480 ft | 349 kts | 307° |
| 2026-04-26 04:56 | 42.30529 | 46.39398 | 39711 ft | 342 kts | 307° |
| 2026-04-26 04:56 | 42.34011 | 46.34987 | 39581 ft | 347 kts | 308° |
| 2026-04-26 04:57 | 42.35798 | 46.32731 | 39352 ft | 353 kts | 308° |
| 2026-04-26 04:57 | 42.37594 | 46.30481 | 39275 ft | 350 kts | 308° |
| 2026-04-26 04:57 | 42.41137 | 46.26112 | 39374 ft | 346 kts | 308° |
| 2026-04-26 04:58 | 42.44715 | 46.21764 | 39413 ft | 346 kts | 308° |
| 2026-04-26 04:58 | 42.48344 | 46.17401 | 39358 ft | 350 kts | 309° |
| 2026-04-26 04:59 | 42.51989 | 46.13076 | 39451 ft | 347 kts | 309° |
| 2026-04-26 04:59 | 42.55659 | 46.08779 | 39274 ft | 350 kts | 310° |
| 2026-04-26 05:00 | 42.56917 | 46.07316 | 39145 ft | 353 kts | 310° |
| 2026-04-26 05:00 | 42.58790 | 46.05143 | 39047 ft | 355 kts | 310° |
| 2026-04-26 05:00 | 42.62491 | 46.00900 | 39286 ft | 346 kts | 310° |
| 2026-04-26 05:01 | 42.66199 | 45.96718 | 39231 ft | 349 kts | 311° |
| 2026-04-26 05:01 | 42.68087 | 45.94597 | 39123 ft | 354 kts | 311° |
| 2026-04-26 05:01 | 42.69989 | 45.92472 | 39155 ft | 353 kts | 311° |
| 2026-04-26 05:02 | 42.71883 | 45.90374 | 39302 ft | 349 kts | 311° |
| 2026-04-26 05:02 | 42.73771 | 45.88303 | 39384 ft | 347 kts | 311° |
| 2026-04-26 05:02 | 42.77569 | 45.84168 | 39187 ft | 353 kts | 312° |
| 2026-04-26 05:03 | 42.81422 | 45.80007 | 39254 ft | 351 kts | 313° |
| 2026-04-26 05:03 | 42.83334 | 45.77971 | 39369 ft | 347 kts | 313° |
| 2026-04-26 05:03 | 42.85240 | 45.75956 | 39361 ft | 348 kts | 313° |
| 2026-04-26 05:04 | 42.89103 | 45.71890 | 39240 ft | 353 kts | 313° |
| 2026-04-26 05:04 | 42.92977 | 45.67867 | 39390 ft | 347 kts | 314° |
| 2026-04-26 05:05 | 42.96846 | 45.63905 | 39295 ft | 350 kts | 314° |
| 2026-04-26 05:05 | 43.00765 | 45.59931 | 39302 ft | 349 kts | 314° |
| 2026-04-26 05:06 | 43.04665 | 45.56041 | 39390 ft | 346 kts | 315° |
| 2026-04-26 05:06 | 43.08598 | 45.52161 | 39247 ft | 350 kts | 315° |
| 2026-04-26 05:07 | 43.12514 | 45.48351 | 39382 ft | 345 kts | 316° |
| 2026-04-26 05:07 | 43.16453 | 45.44575 | 39276 ft | 348 kts | 316° |
| 2026-04-26 05:08 | 43.20442 | 45.40792 | 39278 ft | 347 kts | 317° |
| 2026-04-26 05:08 | 43.24414 | 45.37083 | 39330 ft | 345 kts | 317° |
| 2026-04-26 05:09 | 43.28422 | 45.33385 | 39234 ft | 348 kts | 318° |
| 2026-04-26 05:09 | 43.32449 | 45.29718 | 39307 ft | 346 kts | 318° |
| 2026-04-26 05:10 | 43.36487 | 45.26091 | 39260 ft | 348 kts | 319° |
| 2026-04-26 05:10 | 43.40566 | 45.22468 | 39238 ft | 348 kts | 319° |
| 2026-04-26 05:11 | 43.44646 | 45.18896 | 39283 ft | 348 kts | 320° |
| 2026-04-26 05:11 | 43.48759 | 45.15336 | 39210 ft | 351 kts | 320° |
| 2026-04-26 05:12 | 43.52870 | 45.11825 | 39277 ft | 349 kts | 320° |
| 2026-04-26 05:12 | 43.57014 | 45.08335 | 39224 ft | 351 kts | 321° |
| 2026-04-26 05:13 | 43.61197 | 45.04855 | 39216 ft | 351 kts | 321° |
| 2026-04-26 05:13 | 43.65383 | 45.01424 | 39243 ft | 350 kts | 322° |
| 2026-04-26 05:14 | 43.69603 | 44.98009 | 39184 ft | 352 kts | 322° |
| 2026-04-26 05:14 | 43.73837 | 44.94628 | 39233 ft | 350 kts | 322° |
| 2026-04-26 05:15 | 43.78079 | 44.91293 | 39232 ft | 351 kts | 323° |
| 2026-04-26 05:15 | 43.82352 | 44.87974 | 39191 ft | 352 kts | 323° |
| 2026-04-26 05:16 | 43.86632 | 44.84699 | 39250 ft | 351 kts | 323° |
| 2026-04-26 05:16 | 43.90935 | 44.81451 | 39201 ft | 353 kts | 324° |
| 2026-04-26 05:17 | 43.95231 | 44.78251 | 39228 ft | 352 kts | 324° |
| 2026-04-26 05:17 | 43.99569 | 44.75066 | 39212 ft | 353 kts | 325° |
| 2026-04-26 05:18 | 44.03935 | 44.71904 | 39195 ft | 354 kts | 325° |
| 2026-04-26 05:18 | 44.08314 | 44.68777 | 39215 ft | 354 kts | 326° |
| 2026-04-26 05:19 | 44.12712 | 44.65682 | 39101 ft | 355 kts | 326° |
| 2026-04-26 05:19 | 44.14912 | 44.64150 | 38975 ft | 352 kts | 327° |
| 2026-04-26 05:19 | 44.17087 | 44.62653 | 39181 ft | 346 kts | 327° |
| 2026-04-26 05:20 | 44.21421 | 44.59707 | 39091 ft | 351 kts | 328° |
| 2026-04-26 05:20 | 44.23634 | 44.58211 | 38986 ft | 355 kts | 328° |
| 2026-04-26 05:20 | 44.25857 | 44.56718 | 39070 ft | 353 kts | 328° |
| 2026-04-26 05:21 | 44.28057 | 44.55258 | 39232 ft | 348 kts | 328° |
| 2026-04-26 05:21 | 44.30241 | 44.53821 | 39273 ft | 348 kts | 328° |
| 2026-04-26 05:21 | 44.32448 | 44.52377 | 39170 ft | 353 kts | 329° |
| 2026-04-26 05:21 | 44.34683 | 44.50921 | 39082 ft | 356 kts | 329° |
| 2026-04-26 05:22 | 44.39148 | 44.48048 | 39295 ft | 350 kts | 329° |
| 2026-04-26 05:22 | 44.43562 | 44.45257 | 39240 ft | 354 kts | 329° |
| 2026-04-26 05:23 | 44.48082 | 44.42430 | 39231 ft | 355 kts | 330° |
| 2026-04-26 05:23 | 44.50331 | 44.41043 | 39351 ft | 352 kts | 330° |
| 2026-04-26 05:23 | 44.52573 | 44.39673 | 39378 ft | 352 kts | 330° |
| 2026-04-26 05:24 | 44.57108 | 44.36926 | 39246 ft | 357 kts | 330° |
| 2026-04-26 05:24 | 44.61666 | 44.34205 | 39409 ft | 353 kts | 331° |
| 2026-04-26 05:25 | 44.66205 | 44.31544 | 39390 ft | 356 kts | 331° |
| 2026-04-26 05:25 | 44.70804 | 44.28882 | 39375 ft | 357 kts | 332° |
| 2026-04-26 05:26 | 44.75390 | 44.26274 | 39496 ft | 355 kts | 332° |
| 2026-04-26 05:26 | 44.80003 | 44.23692 | 39422 ft | 358 kts | 332° |
| 2026-04-26 05:27 | 44.84636 | 44.21139 | 39525 ft | 356 kts | 333° |
| 2026-04-26 05:27 | 44.89261 | 44.18636 | 39523 ft | 357 kts | 333° |
| 2026-04-26 05:28 | 44.93895 | 44.16165 | 39520 ft | 358 kts | 333° |
| 2026-04-26 05:28 | 44.98557 | 44.13724 | 39599 ft | 357 kts | 334° |
| 2026-04-26 05:29 | 45.03240 | 44.11312 | 39557 ft | 359 kts | 334° |
| 2026-04-26 05:29 | 45.07936 | 44.08934 | 39654 ft | 357 kts | 334° |
| 2026-04-26 05:30 | 45.12629 | 44.06603 | 39641 ft | 359 kts | 335° |
| 2026-04-26 05:30 | 45.17361 | 44.04288 | 39660 ft | 359 kts | 335° |
| 2026-04-26 05:31 | 45.22076 | 44.02026 | 39729 ft | 358 kts | 335° |
| 2026-04-26 05:31 | 45.26818 | 43.99791 | 39681 ft | 360 kts | 336° |
| 2026-04-26 05:32 | 45.31575 | 43.97589 | 39750 ft | 358 kts | 336° |
| 2026-04-26 05:32 | 45.36328 | 43.95432 | 39742 ft | 360 kts | 336° |
| 2026-04-26 05:33 | 45.41113 | 43.93298 | 39755 ft | 360 kts | 336° |
| 2026-04-26 05:33 | 45.45862 | 43.91223 | 39804 ft | 359 kts | 337° |
| 2026-04-26 05:34 | 45.50662 | 43.89165 | 39774 ft | 361 kts | 337° |
| 2026-04-26 05:34 | 45.55479 | 43.87140 | 39822 ft | 360 kts | 338° |
| 2026-04-26 05:35 | 45.60301 | 43.85155 | 39828 ft | 361 kts | 338° |
| 2026-04-26 05:35 | 45.65141 | 43.83205 | 39824 ft | 361 kts | 338° |
| 2026-04-26 05:36 | 45.69984 | 43.81299 | 39866 ft | 361 kts | 339° |
| 2026-04-26 05:36 | 45.74839 | 43.79431 | 39852 ft | 362 kts | 339° |
| 2026-04-26 05:37 | 45.79681 | 43.77610 | 39874 ft | 362 kts | 339° |
| 2026-04-26 05:37 | 45.84554 | 43.75823 | 39902 ft | 362 kts | 340° |
| 2026-04-26 05:38 | 45.89446 | 43.74072 | 39893 ft | 363 kts | 340° |
| 2026-04-26 05:38 | 45.94354 | 43.72359 | 39924 ft | 362 kts | 340° |
| 2026-04-26 05:39 | 45.99273 | 43.70687 | 39923 ft | 363 kts | 341° |
| 2026-04-26 05:39 | 46.04200 | 43.69054 | 39932 ft | 364 kts | 341° |
| 2026-04-26 05:40 | 46.09135 | 43.67463 | 39948 ft | 363 kts | 341° |
| 2026-04-26 05:40 | 46.14047 | 43.65923 | 39958 ft | 364 kts | 342° |
| 2026-04-26 05:41 | 46.19000 | 43.64413 | 39980 ft | 364 kts | 342° |
| 2026-04-26 05:41 | 46.23962 | 43.62943 | 39984 ft | 364 kts | 342° |
| 2026-04-26 05:42 | 46.28127 | 43.61741 | 39998 ft | 364 kts | 342° |